Time;durP1;ratioP1;P1;durP2;ratioP2;P2;SDS_P1;SDS_P2;PMS_P1;PMS_P2;Temp;Humidity;BMP_temperature;BMP_pressure;BME280_temperature;BME280_humidity;BME280_pressure;Samples;Min_cycle;Max_cycle;Signal;HPM_P1;HPM_P2
2022/03/17 00:00:46;;;;;;;;;;;8.60;99.90;;;;;;5055123;28;19908;-76
2022/03/17 00:03:11;;;;;;;;;;;8.70;99.90;;;;;;5055054;28;19909;-76
2022/03/17 00:05:37;;;;;;;;;;;8.60;99.90;;;;;;5055135;28;19916;-76
2022/03/17 00:08:03;;;;;;;;;;;8.60;99.90;;;;;;5054683;28;19924;-76
2022/03/17 00:10:29;;;;;;;;;;;8.60;99.90;;;;;;5054890;28;19913;-76
2022/03/17 00:12:55;;;;;;;;;;;8.60;99.90;;;;;;5054870;28;20372;-76
2022/03/17 00:15:20;;;;;;;;;;;8.50;99.90;;;;;;5055024;28;19948;-76
2022/03/17 00:17:46;;;;;;;;;;;8.50;99.90;;;;;;5054900;28;19909;-76
2022/03/17 00:20:12;;;;;;;;;;;8.50;99.90;;;;;;5054778;28;19916;-76
2022/03/17 00:22:39;;;;;;;;;;;8.50;99.90;;;;;;5054659;28;19966;-76
2022/03/17 00:25:05;;;;;;;;;;;8.50;99.90;;;;;;5054665;28;19916;-76
2022/03/17 00:27:31;;;;;;;;;;;8.40;99.90;;;;;;5054650;28;19913;-76
2022/03/17 00:29:57;;;;;;;;;;;8.40;99.90;;;;;;5053225;28;19909;-76
2022/03/17 00:32:26;;;;;;;;;;;8.40;99.90;;;;;;5054554;28;20278;-76
2022/03/17 00:35:52;;;;;;;;;;;8.40;99.90;;;;;;5054390;28;19916;-76
2022/03/17 00:37:46;;;;;;;;;;;8.30;99.90;;;;;;5045065;28;19974;-76
2022/03/17 00:40:13;;;;;;;;;;;8.40;99.90;;;;;;5054386;28;19904;-76
2022/03/17 00:42:39;;;;;;;;;;;8.40;99.90;;;;;;5054542;28;20328;-76
2022/03/17 00:45:05;;;;;;;;;;;8.50;99.90;;;;;;5053699;28;19909;-76
2022/03/17 00:47:30;;;;;;;;;;;8.50;99.90;;;;;;5054169;28;19952;-76
2022/03/17 00:49:56;;;;;;;;;;;8.60;99.90;;;;;;5054234;28;19962;-76
2022/03/17 00:52:21;;;;;;;;;;;8.60;99.90;;;;;;5054167;28;19913;-76
2022/03/17 00:54:47;;;;;;;;;;;8.50;99.90;;;;;;5054026;28;20289;-76
2022/03/17 00:57:13;;;;;;;;;;;8.50;99.90;;;;;;5054372;28;19960;-76
2022/03/17 00:59:40;;;;;;;;;;;8.50;99.90;;;;;;5054120;28;19913;-76
2022/03/17 01:02:06;;;;;;;;;;;8.50;99.90;;;;;;5054084;28;20399;-76
2022/03/17 01:04:32;;;;;;;;;;;8.40;99.90;;;;;;5053931;28;20411;-76
2022/03/17 01:06:57;;;;;;;;;;;8.40;99.90;;;;;;5054090;28;19909;-76
2022/03/17 01:09:23;;;;;;;;;;;8.40;99.90;;;;;;5053823;28;19919;-76
2022/03/17 01:11:48;;;;;;;;;;;8.50;99.90;;;;;;5053963;28;20297;-76
2022/03/17 01:14:15;;;;;;;;;;;8.50;99.90;;;;;;5053821;28;19935;-76
2022/03/17 01:16:41;;;;;;;;;;;8.50;99.90;;;;;;5053745;28;19909;-76
2022/03/17 01:19:06;;;;;;;;;;;8.50;99.90;;;;;;5053743;28;20383;-76
2022/03/17 01:21:32;;;;;;;;;;;8.50;99.90;;;;;;5053752;28;19913;-76
2022/03/17 01:23:58;;;;;;;;;;;8.60;99.90;;;;;;5052407;28;19913;-76
2022/03/17 01:26:24;;;;;;;;;;;8.50;99.90;;;;;;5053715;28;20436;-76
2022/03/17 01:28:49;;;;;;;;;;;8.50;99.90;;;;;;5053563;28;20398;-76
2022/03/17 01:31:15;;;;;;;;;;;8.50;99.90;;;;;;5053589;28;20285;-76
2022/03/17 01:33:40;;;;;;;;;;;8.40;99.90;;;;;;5053572;28;19909;-76
2022/03/17 01:36:06;;;;;;;;;;;8.40;99.90;;;;;;5053540;28;19909;-76
2022/03/17 01:38:33;;;;;;;;;;;8.30;99.90;;;;;;5053323;28;20435;-76
2022/03/17 01:40:59;;;;;;;;;;;8.30;99.90;;;;;;5053731;28;19920;-76
2022/03/17 01:43:24;;;;;;;;;;;8.20;99.90;;;;;;5053583;28;20280;-76
2022/03/17 01:45:51;;;;;;;;;;;8.30;99.90;;;;;;5053465;28;19909;-76
2022/03/17 01:48:19;;;;;;;;;;;8.30;99.90;;;;;;5053496;28;19924;-76
2022/03/17 01:50:45;;;;;;;;;;;8.30;99.90;;;;;;5053475;28;19932;-76
2022/03/17 01:53:11;;;;;;;;;;;8.30;99.90;;;;;;5052138;28;20368;-76
2022/03/17 01:55:37;;;;;;;;;;;8.40;99.90;;;;;;5054070;28;20372;-76
2022/03/17 01:58:02;;;;;;;;;;;8.40;99.90;;;;;;5057365;28;19959;-76
2022/03/17 02:00:28;;;;;;;;;;;8.50;99.90;;;;;;5057347;28;19908;-76
2022/03/17 02:02:54;;;;;;;;;;;8.50;99.90;;;;;;5057648;28;19940;-76
2022/03/17 02:05:20;;;;;;;;;;;8.50;99.90;;;;;;5057248;28;19909;-76
2022/03/17 02:10:15;;;;;;;;;;;8.40;99.90;;;;;;5057202;28;19916;-76
2022/03/17 02:15:26;;;;;;;;;;;8.50;99.90;;;;;;5056980;28;20391;-76
2022/03/17 02:17:52;;;;;;;;;;;8.40;99.90;;;;;;5057221;28;19909;-76
2022/03/17 02:20:17;;;;;;;;;;;8.30;99.90;;;;;;5056989;28;19915;-76
2022/03/17 02:22:44;;;;;;;;;;;8.30;99.90;;;;;;5056976;28;20369;-76
2022/03/17 02:27:54;;;;;;;;;;;8.30;99.90;;;;;;5056780;28;20292;-76
2022/03/17 02:30:21;;;;;;;;;;;8.30;99.90;;;;;;5055529;28;19909;-76
2022/03/17 02:32:47;;;;;;;;;;;8.10;99.90;;;;;;5056933;28;19908;-76
2022/03/17 02:35:22;;;;;;;;;;;8.10;99.90;;;;;;5056720;28;19909;-76
2022/03/17 02:37:48;;;;;;;;;;;8.10;99.90;;;;;;5054999;28;20384;-76
2022/03/17 02:40:14;;;;;;;;;;;8.10;99.90;;;;;;5056919;28;19955;-76
2022/03/17 02:42:40;;;;;;;;;;;8.10;99.90;;;;;;5056624;28;20288;-76
2022/03/17 02:45:07;;;;;;;;;;;8.00;99.90;;;;;;5056726;28;20423;-76
2022/03/17 02:47:33;;;;;;;;;;;8.00;99.90;;;;;;5056533;28;20428;-76
2022/03/17 02:49:59;;;;;;;;;;;7.90;99.90;;;;;;5056437;28;20000;-76
2022/03/17 02:52:25;;;;;;;;;;;7.90;99.90;;;;;;5056588;28;20003;-76
2022/03/17 02:54:52;;;;;;;;;;;7.80;99.90;;;;;;5056335;28;19909;-76
2022/03/17 02:57:18;;;;;;;;;;;7.70;99.90;;;;;;5056605;28;19931;-76
2022/03/17 02:59:43;;;;;;;;;;;7.70;99.90;;;;;;5056247;28;19908;-76
2022/03/17 03:02:09;;;;;;;;;;;7.70;99.90;;;;;;5056231;28;19912;-76
2022/03/17 03:04:35;;;;;;;;;;;7.60;99.90;;;;;;5056183;28;19908;-76
2022/03/17 03:07:04;;;;;;;;;;;7.60;99.90;;;;;;5054159;28;19954;-76
2022/03/17 03:09:30;;;;;;;;;;;7.60;99.90;;;;;;5055975;28;20293;-76
2022/03/17 03:11:55;;;;;;;;;;;7.60;99.90;;;;;;5056091;28;19909;-76
2022/03/17 03:14:21;;;;;;;;;;;7.50;99.90;;;;;;5056039;28;19994;-76
2022/03/17 03:16:48;;;;;;;;;;;7.50;99.90;;;;;;5056128;28;19974;-76
2022/03/17 03:19:13;;;;;;;;;;;7.50;99.90;;;;;;5055918;28;19915;-76
2022/03/17 03:21:39;;;;;;;;;;;7.50;99.90;;;;;;5055908;28;19913;-76
2022/03/17 03:24:04;;;;;;;;;;;7.50;99.90;;;;;;5055807;28;20380;-76
2022/03/17 03:26:30;;;;;;;;;;;7.40;99.90;;;;;;5056115;28;19999;-76
2022/03/17 03:28:56;;;;;;;;;;;7.30;99.90;;;;;;5055628;28;20436;-76
2022/03/17 03:31:22;;;;;;;;;;;7.30;99.90;;;;;;5055742;28;20389;-76
2022/03/17 03:33:47;;;;;;;;;;;7.30;99.90;;;;;;5054363;28;19940;-76
2022/03/17 03:38:57;;;;;;;;;;;7.30;99.90;;;;;;5055332;28;19967;-76
2022/03/17 03:41:22;;;;;;;;;;;7.30;99.90;;;;;;5055851;28;19955;-76
2022/03/17 03:43:48;;;;;;;;;;;7.30;99.90;;;;;;5055404;28;19909;-76
2022/03/17 03:46:14;;;;;;;;;;;7.20;99.90;;;;;;5055393;28;19975;-76
2022/03/17 03:48:40;;;;;;;;;;;7.20;99.90;;;;;;5055252;28;19936;-76
2022/03/17 03:51:06;;;;;;;;;;;7.20;99.90;;;;;;5054005;28;19909;-76
2022/03/17 03:56:16;;;;;;;;;;;7.20;99.90;;;;;;5054963;28;19911;-76
2022/03/17 03:58:41;;;;;;;;;;;7.20;99.90;;;;;;5055170;28;19909;-76
2022/03/17 04:01:07;;;;;;;;;;;7.10;99.90;;;;;;5055096;28;19909;-76
2022/03/17 04:03:33;;;;;;;;;;;7.10;99.90;;;;;;5055163;28;19915;-76
2022/03/17 04:05:58;;;;;;;;;;;7.10;99.90;;;;;;5055371;28;19909;-76
2022/03/17 04:08:24;;;;;;;;;;;7.10;99.90;;;;;;5055165;28;19959;-76
2022/03/17 04:10:50;;;;;;;;;;;7.10;99.90;;;;;;5054975;28;19963;-76
2022/03/17 04:13:15;;;;;;;;;;;7.10;99.90;;;;;;5054955;28;19932;-76
2022/03/17 04:15:41;;;;;;;;;;;7.20;99.90;;;;;;5054852;28;20387;-76
2022/03/17 04:18:07;;;;;;;;;;;7.20;99.90;;;;;;5054879;28;19915;-76
2022/03/17 04:20:33;;;;;;;;;;;7.20;99.90;;;;;;5054760;28;19909;-76
2022/03/17 04:22:58;;;;;;;;;;;7.10;99.90;;;;;;5054687;28;20376;-76
2022/03/17 04:25:24;;;;;;;;;;;7.10;99.90;;;;;;5054836;28;19958;-76
2022/03/17 04:27:50;;;;;;;;;;;7.00;99.90;;;;;;5053280;28;19919;-76
2022/03/17 04:30:16;;;;;;;;;;;7.00;99.90;;;;;;5053301;28;20319;-76
2022/03/17 04:32:41;;;;;;;;;;;7.00;99.90;;;;;;5054473;28;19909;-76
2022/03/17 04:35:07;;;;;;;;;;;7.00;99.90;;;;;;5054872;28;19912;-76
2022/03/17 04:37:33;;;;;;;;;;;6.90;99.90;;;;;;5054190;28;19909;-76
2022/03/17 04:39:58;;;;;;;;;;;6.90;99.90;;;;;;5052868;28;19909;-76
2022/03/17 04:42:24;;;;;;;;;;;6.80;99.90;;;;;;5054398;28;19944;-76
2022/03/17 04:44:49;;;;;;;;;;;6.80;99.90;;;;;;5054482;28;19913;-76
2022/03/17 04:47:15;;;;;;;;;;;6.70;99.90;;;;;;5054402;28;19909;-76
2022/03/17 04:49:41;;;;;;;;;;;6.70;99.90;;;;;;5054318;28;20377;-76
2022/03/17 04:53:26;;;;;;;;;;;6.70;99.90;;;;;;5054150;28;19948;-76
2022/03/17 04:54:53;;;;;;;;;;;6.60;99.90;;;;;;5053769;28;19909;-76
2022/03/17 04:57:18;;;;;;;;;;;6.60;99.90;;;;;;5054087;28;20373;-76
2022/03/17 04:59:44;;;;;;;;;;;6.50;99.90;;;;;;5054048;28;20281;-76
2022/03/17 05:02:13;;;;;;;;;;;6.60;99.90;;;;;;5053985;28;20007;-76
2022/03/17 05:04:39;;;;;;;;;;;6.40;99.90;;;;;;5054167;28;19915;-76
2022/03/17 05:07:04;;;;;;;;;;;6.40;99.90;;;;;;5052681;28;19940;-76
2022/03/17 05:09:30;;;;;;;;;;;6.50;99.90;;;;;;5053831;28;19963;-76
2022/03/17 05:11:55;;;;;;;;;;;6.50;99.90;;;;;;5053944;28;19916;-76
2022/03/17 05:14:21;;;;;;;;;;;6.60;99.90;;;;;;5053835;28;20288;-76
2022/03/17 05:16:47;;;;;;;;;;;6.60;99.90;;;;;;5053693;28;19938;-76
2022/03/17 05:19:12;;;;;;;;;;;6.50;99.90;;;;;;5053733;28;19913;-76
2022/03/17 05:21:38;;;;;;;;;;;6.40;99.90;;;;;;5053821;28;20262;-76
2022/03/17 05:24:04;;;;;;;;;;;6.30;99.90;;;;;;5052414;28;20351;-76
2022/03/17 05:26:30;;;;;;;;;;;6.30;99.90;;;;;;5053928;28;19990;-76
2022/03/17 05:28:56;;;;;;;;;;;6.20;99.90;;;;;;5053746;28;19963;-76
2022/03/17 05:31:21;;;;;;;;;;;6.20;99.90;;;;;;5053252;28;19944;-76
2022/03/17 05:33:47;;;;;;;;;;;6.20;99.90;;;;;;5052288;28;19997;-76
2022/03/17 05:36:12;;;;;;;;;;;6.20;99.90;;;;;;5053575;28;19909;-76
2022/03/17 05:38:38;;;;;;;;;;;6.20;99.90;;;;;;5053347;28;19928;-76
2022/03/17 05:41:05;;;;;;;;;;;6.10;99.90;;;;;;5053529;28;19932;-76
2022/03/17 05:43:31;;;;;;;;;;;6.00;99.90;;;;;;5053772;28;19935;-76
2022/03/17 05:45:57;;;;;;;;;;;5.90;99.90;;;;;;5053573;28;20413;-76
2022/03/17 05:48:23;;;;;;;;;;;6.00;99.90;;;;;;5053366;28;19948;-76
2022/03/17 05:50:48;;;;;;;;;;;5.90;99.90;;;;;;5053865;28;19951;-76
2022/03/17 05:53:14;;;;;;;;;;;5.80;99.90;;;;;;5053462;28;19940;-76
2022/03/17 05:55:40;;;;;;;;;;;5.80;99.90;;;;;;5052172;28;19936;-76
2022/03/17 05:58:06;;;;;;;;;;;5.80;99.90;;;;;;5053364;28;19909;-76
2022/03/17 06:00:32;;;;;;;;;;;5.80;99.90;;;;;;5053364;28;19909;-76
2022/03/17 06:02:58;;;;;;;;;;;5.80;99.90;;;;;;5053327;28;19916;-76
2022/03/17 06:05:25;;;;;;;;;;;5.70;99.90;;;;;;5053445;28;20391;-76
2022/03/17 06:07:52;;;;;;;;;;;5.70;99.90;;;;;;5053220;28;19974;-76
2022/03/17 06:10:22;;;;;;;;;;;5.60;99.90;;;;;;5051987;28;19940;-76
2022/03/17 06:12:49;;;;;;;;;;;5.60;99.90;;;;;;5053165;28;19916;-76
2022/03/17 06:15:15;;;;;;;;;;;5.50;99.90;;;;;;5053215;28;20301;-76
2022/03/17 06:17:42;;;;;;;;;;;5.50;99.90;;;;;;5051965;28;19913;-76
2022/03/17 06:20:09;;;;;;;;;;;5.40;99.90;;;;;;5053228;28;19908;-76
2022/03/17 06:22:39;;;;;;;;;;;5.50;99.90;;;;;;5053147;28;19909;-76
2022/03/17 06:25:05;;;;;;;;;;;5.50;99.90;;;;;;5053183;28;20391;-76
2022/03/17 06:27:30;;;;;;;;;;;5.50;99.90;;;;;;5053129;28;19952;-76
2022/03/17 06:29:56;;;;;;;;;;;5.50;99.90;;;;;;5053029;28;19951;-76
2022/03/17 06:32:21;;;;;;;;;;;5.50;99.90;;;;;;5053060;28;19935;-76
2022/03/17 06:34:47;;;;;;;;;;;5.50;99.90;;;;;;5053427;28;19916;-76
2022/03/17 06:37:13;;;;;;;;;;;5.40;99.90;;;;;;5053017;28;20007;-76
2022/03/17 06:39:38;;;;;;;;;;;5.40;99.90;;;;;;5052632;28;19920;-76
2022/03/17 06:42:04;;;;;;;;;;;5.40;99.90;;;;;;5052945;28;19909;-76
2022/03/17 06:44:30;;;;;;;;;;;5.40;99.90;;;;;;5056367;28;19913;-76
2022/03/17 06:46:55;;;;;;;;;;;5.50;99.90;;;;;;5055170;28;20027;-76
2022/03/17 06:49:21;;;;;;;;;;;5.70;99.90;;;;;;5056530;28;19913;-76
2022/03/17 06:51:46;;;;;;;;;;;5.70;99.90;;;;;;5055200;28;19916;-76
2022/03/17 06:54:12;;;;;;;;;;;5.70;99.90;;;;;;5056299;28;20357;-76
2022/03/17 06:56:37;;;;;;;;;;;5.60;99.90;;;;;;5056562;28;19954;-76
2022/03/17 06:59:03;;;;;;;;;;;5.70;99.90;;;;;;5056546;28;19909;-76
2022/03/17 07:01:29;;;;;;;;;;;5.80;99.90;;;;;;5056323;28;19912;-76
2022/03/17 07:03:54;;;;;;;;;;;5.90;99.90;;;;;;5056333;28;20354;-76
2022/03/17 07:06:20;;;;;;;;;;;6.00;99.90;;;;;;5055974;28;20400;-76
2022/03/17 07:08:46;;;;;;;;;;;6.00;99.90;;;;;;5056077;28;19913;-76
2022/03/17 07:11:12;;;;;;;;;;;6.00;99.90;;;;;;5056196;28;19958;-76
2022/03/17 07:13:37;;;;;;;;;;;6.20;99.90;;;;;;5056214;28;19909;-76
2022/03/17 07:16:03;;;;;;;;;;;6.30;99.90;;;;;;5055964;28;19909;-76
2022/03/17 07:18:29;;;;;;;;;;;6.30;99.90;;;;;;5055896;28;19915;-76
2022/03/17 07:20:57;;;;;;;;;;;6.40;99.90;;;;;;5056096;28;20292;-76
2022/03/17 07:23:23;;;;;;;;;;;6.60;99.90;;;;;;5054564;28;20012;-76
2022/03/17 07:25:49;;;;;;;;;;;6.60;99.90;;;;;;5055825;28;19952;-76
2022/03/17 07:28:15;;;;;;;;;;;6.80;99.90;;;;;;5055862;28;19913;-76
2022/03/17 07:30:41;;;;;;;;;;;6.80;99.90;;;;;;5056056;28;19909;-76
2022/03/17 07:33:06;;;;;;;;;;;6.70;99.90;;;;;;5056146;28;19909;-76
2022/03/17 07:35:33;;;;;;;;;;;6.80;99.90;;;;;;5055963;28;20007;-76
2022/03/17 07:37:59;;;;;;;;;;;6.90;99.90;;;;;;5055422;28;19920;-76
2022/03/17 07:40:26;;;;;;;;;;;7.00;99.90;;;;;;5055579;28;20003;-76
2022/03/17 07:42:51;;;;;;;;;;;7.00;99.90;;;;;;5054230;28;20388;-76
2022/03/17 07:45:17;;;;;;;;;;;7.20;99.90;;;;;;5054134;28;19931;-76
2022/03/17 07:47:46;;;;;;;;;;;7.40;99.90;;;;;;5055459;28;20284;-76
2022/03/17 07:50:12;;;;;;;;;;;7.60;99.90;;;;;;5055372;28;19913;-76
2022/03/17 07:52:38;;;;;;;;;;;7.90;99.90;;;;;;5055365;28;19909;-77
2022/03/17 07:55:04;;;;;;;;;;;8.30;99.90;;;;;;5054754;28;20383;-76
2022/03/17 07:57:30;;;;;;;;;;;8.70;99.90;;;;;;5055207;28;19913;-76
2022/03/17 07:59:56;;;;;;;;;;;8.90;99.90;;;;;;5055118;28;19948;-76
2022/03/17 08:02:22;;;;;;;;;;;9.00;99.90;;;;;;5055590;28;19988;-76
2022/03/17 08:04:50;;;;;;;;;;;9.00;99.90;;;;;;5055261;28;19959;-76
2022/03/17 08:07:16;;;;;;;;;;;9.00;99.90;;;;;;5055119;28;19909;-76
2022/03/17 08:09:41;;;;;;;;;;;9.40;99.90;;;;;;5054881;28;20090;-76
2022/03/17 08:12:07;;;;;;;;;;;9.80;99.90;;;;;;5054939;28;19909;-76
2022/03/17 08:14:32;;;;;;;;;;;9.90;99.90;;;;;;5053625;28;19916;-76
2022/03/17 08:16:58;;;;;;;;;;;10.20;99.90;;;;;;5054792;28;20003;-76
2022/03/17 08:19:24;;;;;;;;;;;11.10;99.90;;;;;;5054790;28;19909;-77
2022/03/17 08:21:49;;;;;;;;;;;12.40;99.90;;;;;;5054713;28;19920;-77
2022/03/17 08:24:15;;;;;;;;;;;13.20;99.90;;;;;;5054966;28;19991;-77
2022/03/17 08:26:41;;;;;;;;;;;13.80;99.90;;;;;;5053351;28;19909;-77
2022/03/17 08:29:06;;;;;;;;;;;14.80;99.90;;;;;;5054734;28;19917;-77
2022/03/17 08:31:32;;;;;;;;;;;15.60;99.90;;;;;;5054523;28;19980;-77
2022/03/17 08:33:58;;;;;;;;;;;16.60;99.40;;;;;;5054500;28;19909;-77
2022/03/17 08:36:24;;;;;;;;;;;18.20;97.60;;;;;;5054526;28;19915;-77
2022/03/17 08:38:54;;;;;;;;;;;18.40;93.30;;;;;;5054260;28;19932;-78
2022/03/17 08:41:20;;;;;;;;;;;18.10;92.90;;;;;;5053085;28;19912;-78
2022/03/17 08:43:46;;;;;;;;;;;18.60;91.20;;;;;;5054295;28;19916;-77
2022/03/17 08:51:39;;;;;;;;;;;20.00;88.10;;;;;;5054125;28;19920;-78
2022/03/17 08:54:05;;;;;;;;;;;20.70;83.40;;;;;;5054429;28;20278;-78
2022/03/17 08:56:32;;;;;;;;;;;21.40;81.40;;;;;;5054203;28;19996;-78
2022/03/17 08:58:58;;;;;;;;;;;21.90;77.70;;;;;;5054265;28;19909;-78
2022/03/17 09:01:24;;;;;;;;;;;21.90;75.70;;;;;;5054078;28;19909;-78
2022/03/17 09:03:49;;;;;;;;;;;22.90;73.60;;;;;;5054405;28;19920;-78
2022/03/17 09:06:15;;;;;;;;;;;22.30;71.80;;;;;;5053236;28;20007;-78
2022/03/17 09:08:41;;;;;;;;;;;22.10;71.30;;;;;;5053856;28;19913;-78
2022/03/17 09:11:07;;;;;;;;;;;22.60;70.60;;;;;;5054464;28;19909;-78
2022/03/17 09:13:33;;;;;;;;;;;23.10;70.70;;;;;;5052655;28;20392;-78
2022/03/17 09:15:59;;;;;;;;;;;23.90;68.50;;;;;;5053837;28;20003;-77
2022/03/17 09:18:27;;;;;;;;;;;23.90;64.40;;;;;;5052483;28;20342;-78
2022/03/17 09:20:52;;;;;;;;;;;24.30;61.60;;;;;;5053752;28;20008;-78
2022/03/17 09:23:18;;;;;;;;;;;24.80;60.50;;;;;;5054027;28;19970;-78
2022/03/17 09:25:45;;;;;;;;;;;24.70;59.60;;;;;;5053649;28;19915;-77
2022/03/17 09:28:11;;;;;;;;;;;25.50;57.70;;;;;;5053622;28;19920;-78
2022/03/17 09:30:36;;;;;;;;;;;25.00;56.00;;;;;;5053898;28;20307;-79
2022/03/17 09:33:04;;;;;;;;;;;25.60;55.60;;;;;;5053730;28;19996;-78
2022/03/17 09:35:30;;;;;;;;;;;26.60;54.10;;;;;;5053622;28;19919;-77
2022/03/17 09:37:56;;;;;;;;;;;27.00;52.50;;;;;;5053395;28;19916;-78
2022/03/17 09:40:21;;;;;;;;;;;26.10;51.80;;;;;;5053583;28;19908;-78
2022/03/17 09:42:48;;;;;;;;;;;27.20;51.60;;;;;;5053641;28;19916;-78
2022/03/17 09:45:14;;;;;;;;;;;27.60;50.60;;;;;;5054016;28;19916;-78
2022/03/17 09:47:42;;;;;;;;;;;28.40;49.50;;;;;;5053811;28;20364;-78
2022/03/17 09:50:10;;;;;;;;;;;29.30;47.90;;;;;;5053385;28;19952;-77
2022/03/17 09:52:37;;;;;;;;;;;29.30;46.20;;;;;;5053542;28;19956;-78
2022/03/17 09:55:03;;;;;;;;;;;29.70;46.50;;;;;;5053380;28;19975;-79
2022/03/17 09:57:29;;;;;;;;;;;30.40;45.00;;;;;;5053437;28;19915;-79
2022/03/17 09:59:57;;;;;;;;;;;30.30;44.30;;;;;;5053199;28;20011;-79
2022/03/17 10:02:23;;;;;;;;;;;31.00;44.10;;;;;;5053299;28;19970;-78
2022/03/17 10:04:49;;;;;;;;;;;30.70;42.60;;;;;;5053420;28;19955;-79
2022/03/17 10:07:18;;;;;;;;;;;30.70;42.20;;;;;;5053343;28;19913;-79
2022/03/17 10:09:44;;;;;;;;;;;30.60;41.90;;;;;;5053554;28;19963;-79
2022/03/17 10:12:11;;;;;;;;;;;31.00;40.20;;;;;;5053255;28;20373;-79
2022/03/17 10:14:38;;;;;;;;;;;31.70;40.80;;;;;;5053302;28;20007;-79
2022/03/17 10:17:05;;;;;;;;;;;32.20;40.70;;;;;;5054601;28;20387;-77
2022/03/17 10:19:32;;;;;;;;;;;33.50;39.90;;;;;;5055808;28;20016;-75
2022/03/17 10:22:12;;;;;;;;;;;33.90;38.10;;;;;;5057004;28;19996;-76
2022/03/17 10:24:49;;;;;;;;;;;34.90;37.00;;;;;;5057009;28;19909;-77
2022/03/17 10:27:14;;;;;;;;;;;34.60;36.20;;;;;;5057386;28;19913;-76
2022/03/17 10:29:40;;;;;;;;;;;33.80;35.50;;;;;;5057234;28;20387;-77
2022/03/17 10:32:06;;;;;;;;;;;34.10;35.70;;;;;;5056989;28;19923;-76
2022/03/17 10:34:47;;;;;;;;;;;34.20;35.00;;;;;;5056863;28;19909;-77
2022/03/17 10:37:17;;;;;;;;;;;32.80;34.80;;;;;;5056755;28;19909;-76
2022/03/17 10:39:44;;;;;;;;;;;34.50;36.00;;;;;;5056214;28;19920;-77
2022/03/17 10:42:14;;;;;;;;;;;35.90;34.30;;;;;;5056815;28;20042;-76
2022/03/17 10:44:41;;;;;;;;;;;36.50;33.40;;;;;;5056768;28;20001;-77
2022/03/17 10:47:06;;;;;;;;;;;35.70;32.40;;;;;;5056551;28;19999;-77
2022/03/17 10:49:33;;;;;;;;;;;34.60;31.60;;;;;;5056930;28;20011;-77
2022/03/17 10:51:59;;;;;;;;;;;36.40;32.40;;;;;;5055219;28;20424;-77
2022/03/17 10:54:24;;;;;;;;;;;37.00;31.10;;;;;;5056376;28;19959;-77
2022/03/17 10:57:24;;;;;;;;;;;36.70;31.40;;;;;;5056448;28;19909;-76
2022/03/17 10:59:53;;;;;;;;;;;36.10;31.20;;;;;;5048258;28;19917;-76
2022/03/17 11:02:21;;;;;;;;;;;36.20;31.30;;;;;;5056280;28;19955;-76
2022/03/17 11:04:47;;;;;;;;;;;36.00;31.20;;;;;;5056237;28;19909;-77
2022/03/17 11:07:14;;;;;;;;;;;35.90;30.40;;;;;;5054918;28;20288;-77
2022/03/17 11:09:40;;;;;;;;;;;36.50;31.60;;;;;;5056480;28;20361;-78
2022/03/17 11:12:09;;;;;;;;;;;37.60;31.20;;;;;;5056042;28;19932;-76
2022/03/17 11:14:49;;;;;;;;;;;37.00;30.60;;;;;;5056453;28;19909;-76
2022/03/17 11:17:42;;;;;;;;;;;35.90;31.10;;;;;;5056317;28;20426;-77
2022/03/17 11:20:10;;;;;;;;;;;36.80;30.80;;;;;;5053776;28;19913;-78
2022/03/17 11:22:36;;;;;;;;;;;37.40;30.60;;;;;;5055922;28;20419;-77
2022/03/17 11:25:20;;;;;;;;;;;37.80;30.60;;;;;;5056248;28;19916;-77
2022/03/17 11:27:46;;;;;;;;;;;37.90;30.00;;;;;;5054323;28;19909;-78
2022/03/17 11:30:13;;;;;;;;;;;38.30;30.60;;;;;;5055257;28;19909;-77
2022/03/17 11:32:48;;;;;;;;;;;39.70;29.70;;;;;;5054470;28;20440;-77
2022/03/17 11:35:18;;;;;;;;;;;37.70;29.70;;;;;;5055965;28;19909;-76
2022/03/17 11:37:44;;;;;;;;;;;36.30;31.00;;;;;;5055488;28;19971;-76
2022/03/17 11:40:11;;;;;;;;;;;37.90;30.50;;;;;;5055745;28;19913;-77
2022/03/17 11:42:38;;;;;;;;;;;38.70;30.00;;;;;;5055450;28;20356;-77
2022/03/17 11:45:13;;;;;;;;;;;39.40;29.50;;;;;;5056064;28;19909;-77
2022/03/17 11:47:47;;;;;;;;;;;40.60;30.00;;;;;;5054165;28;19992;-77
2022/03/17 11:50:28;;;;;;;;;;;41.30;29.40;;;;;;5055451;28;19935;-76
2022/03/17 11:52:56;;;;;;;;;;;41.60;28.80;;;;;;5055503;28;19909;-76
2022/03/17 11:55:48;;;;;;;;;;;41.00;29.40;;;;;;5055262;28;19915;-77
2022/03/17 11:58:31;;;;;;;;;;;40.50;28.60;;;;;;5055205;28;19921;-77
2022/03/17 12:01:11;;;;;;;;;;;41.30;29.00;;;;;;5053883;28;19909;-76
2022/03/17 12:03:38;;;;;;;;;;;41.20;28.70;;;;;;5053619;28;20331;-76
2022/03/17 12:06:24;;;;;;;;;;;42.70;28.60;;;;;;5055259;28;20352;-77
2022/03/17 12:08:52;;;;;;;;;;;42.90;28.20;;;;;;5043414;28;19920;-77
2022/03/17 12:11:22;;;;;;;;;;;40.20;28.30;;;;;;5032727;28;19953;-77
2022/03/17 12:14:14;;;;;;;;;;;39.00;29.20;;;;;;5041109;28;19985;-77
2022/03/17 12:16:47;;;;;;;;;;;41.40;28.70;;;;;;5038981;28;19932;-76
2022/03/17 12:19:36;;;;;;;;;;;38.60;28.70;;;;;;5045881;28;19943;-76
2022/03/17 12:22:06;;;;;;;;;;;37.10;29.10;;;;;;5039567;28;19915;-77
2022/03/17 12:24:50;;;;;;;;;;;38.10;29.40;;;;;;5043561;28;19909;-77
2022/03/17 12:27:15;;;;;;;;;;;38.80;28.50;;;;;;5045155;28;19912;-76
2022/03/17 12:29:41;;;;;;;;;;;41.90;28.70;;;;;;5040628;28;19913;-76
2022/03/17 12:32:14;;;;;;;;;;;43.00;28.50;;;;;;5045952;28;20444;-76
2022/03/17 12:34:42;;;;;;;;;;;40.90;28.10;;;;;;5041767;28;20305;-75
2022/03/17 12:37:08;;;;;;;;;;;40.80;28.00;;;;;;5044479;28;19932;-77
2022/03/17 12:39:34;;;;;;;;;;;39.80;28.50;;;;;;5045582;28;19968;-77
2022/03/17 12:42:00;;;;;;;;;;;41.10;28.20;;;;;;5054341;28;19955;-76
2022/03/17 12:44:26;;;;;;;;;;;42.50;27.90;;;;;;5054495;28;19908;-77
2022/03/17 12:46:53;;;;;;;;;;;42.50;27.90;;;;;;5054639;28;20377;-78
2022/03/17 12:49:19;;;;;;;;;;;42.30;27.70;;;;;;5054352;28;19909;-76
2022/03/17 12:51:45;;;;;;;;;;;42.70;27.50;;;;;;5054357;28;19909;-77
2022/03/17 12:54:14;;;;;;;;;;;41.50;27.60;;;;;;5052817;28;19916;-76
2022/03/17 12:56:50;;;;;;;;;;;39.70;27.50;;;;;;5054436;28;19912;-77
2022/03/17 12:59:15;;;;;;;;;;;41.70;28.30;;;;;;5054539;28;19913;-77
2022/03/17 13:01:41;;;;;;;;;;;44.00;28.00;;;;;;5054610;28;20058;-76
2022/03/17 13:04:07;;;;;;;;;;;42.50;27.50;;;;;;5054421;28;19916;-77
2022/03/17 13:09:18;;;;;;;;;;;42.90;27.90;;;;;;5054418;28;20430;-77
2022/03/17 13:14:31;;;;;;;;;;;43.10;27.50;;;;;;5054347;28;19920;-77
2022/03/17 13:17:04;;;;;;;;;;;42.80;27.50;;;;;;5054118;28;19909;-76
2022/03/17 13:19:30;;;;;;;;;;;42.30;27.00;;;;;;5054004;28;20011;-76
2022/03/17 13:22:05;;;;;;;;;;;42.20;27.80;;;;;;5054441;28;19944;-76
2022/03/17 13:24:31;;;;;;;;;;;41.90;27.10;;;;;;5054258;28;19913;-77
2022/03/17 13:26:58;;;;;;;;;;;42.00;27.40;;;;;;5054510;28;19916;-76
2022/03/17 13:29:24;;;;;;;;;;;42.80;27.50;;;;;;5054270;28;19913;-75
2022/03/17 13:31:49;;;;;;;;;;;41.40;27.40;;;;;;5053951;28;20383;-75
2022/03/17 13:34:33;;;;;;;;;;;41.20;27.00;;;;;;5054486;28;19916;-77
2022/03/17 13:37:00;;;;;;;;;;;42.20;27.70;;;;;;5053882;28;19909;-75
2022/03/17 13:39:30;;;;;;;;;;;42.60;27.80;;;;;;5053335;28;19927;-76
2022/03/17 13:41:58;;;;;;;;;;;41.60;27.90;;;;;;5053024;28;20201;-77
2022/03/17 13:44:24;;;;;;;;;;;42.30;27.80;;;;;;5053821;28;19916;-75
2022/03/17 13:46:49;;;;;;;;;;;42.00;27.90;;;;;;5053817;28;19913;-76
2022/03/17 13:49:15;;;;;;;;;;;42.20;28.30;;;;;;5053739;28;19916;-76
2022/03/17 13:51:41;;;;;;;;;;;42.20;28.30;;;;;;5054809;28;19991;-77
2022/03/17 13:54:07;;;;;;;;;;;42.20;27.60;;;;;;5057785;28;19970;-77
2022/03/17 13:56:34;;;;;;;;;;;41.50;27.60;;;;;;5057625;28;19909;-76
2022/03/17 13:59:00;;;;;;;;;;;39.50;27.90;;;;;;5057546;28;19921;-76
2022/03/17 14:01:26;;;;;;;;;;;41.40;28.30;;;;;;5058038;28;20043;-76
2022/03/17 14:03:58;;;;;;;;;;;41.70;28.30;;;;;;5057448;28;19916;-75
2022/03/17 14:06:31;;;;;;;;;;;42.00;28.80;;;;;;5058011;28;19909;-76
2022/03/17 14:08:57;;;;;;;;;;;42.30;27.80;;;;;;5057639;28;19909;-76
2022/03/17 14:11:26;;;;;;;;;;;42.00;28.00;;;;;;5056154;28;19916;-76
2022/03/17 14:13:53;;;;;;;;;;;42.10;28.20;;;;;;5057324;28;20384;-76
2022/03/17 14:16:20;;;;;;;;;;;40.10;28.40;;;;;;5057610;28;19915;-75
2022/03/17 14:18:46;;;;;;;;;;;40.70;28.40;;;;;;5057271;28;20011;-75
2022/03/17 14:21:12;;;;;;;;;;;39.70;28.70;;;;;;5056793;28;19909;-75
2022/03/17 14:26:23;;;;;;;;;;;41.00;28.60;;;;;;5057301;28;20043;-75
2022/03/17 14:28:49;;;;;;;;;;;41.80;28.30;;;;;;5057172;28;19962;-75
2022/03/17 14:31:17;;;;;;;;;;;40.50;28.50;;;;;;5055613;28;20369;-75
2022/03/17 14:33:44;;;;;;;;;;;40.00;28.20;;;;;;5057043;28;19999;-75
2022/03/17 14:36:12;;;;;;;;;;;39.80;28.50;;;;;;5056780;28;19916;-74
2022/03/17 14:38:41;;;;;;;;;;;38.20;28.50;;;;;;5056669;28;19928;-76
2022/03/17 14:41:08;;;;;;;;;;;38.30;28.70;;;;;;5056701;28;19948;-76
2022/03/17 14:43:34;;;;;;;;;;;38.30;28.70;;;;;;5056758;28;19909;-76
2022/03/17 14:46:00;;;;;;;;;;;39.20;28.80;;;;;;5056626;28;19999;-76
2022/03/17 14:48:25;;;;;;;;;;;38.40;29.00;;;;;;5056880;28;19951;-76
2022/03/17 14:50:54;;;;;;;;;;;37.40;29.20;;;;;;5056523;28;19909;-76